ブダペスト の空港の天気 - METARとTAF

ブダペスト/フェリヘギ空港 ( LHBP / BUD ) - ハンガリー ブダペスト
飛行場実況気象(Metar)
観測時間11/19 10:30 CET (11/19 09:30 UTC)
風向・風速東南東 5m/s
視程10km以上
天気現象
なし
気温11℃
湿度71%
気圧1022hPa
METARLHBP 190930Z 11009KT CAVOK 11/06 Q1022 NOSIG
過去の天気等 Google飛行場航空写真 Wunderground天気予報

過去48時間のMETAR

飛行場予報(TAF)
発表時間: 11/19 06:15 CET (11/19 05:15 UTC)
予報対象時間: 19日7時 CET ~ 20日7時 CET
風向・風速北東 2m/s
視程10km以上
なし
19日9時 CET ~ 19日11時 CET に徐々に
風向・風速東北東 5m/s
19日18時 CET ~ 19日21時 CET に徐々に
視程4000m
天気現象もや
全天の8割程度の雲 雲底高度 120m
19日21時 CET ~ 20日4時 CET に一時的に
視程2000m
天気現象もや
全天の8割程度の雲 雲底高度 30m
20日4時 CET ~ 20日6時 CET に徐々に
視程10km以上
天気現象運行に影響にある天気現象が終了
全天の4割程度の雲 雲底高度 150m
全天の8割程度の雲 雲底高度 1070m
TAF LHBP 190515Z 1906/2006 04004KT CAVOK
BECMG 1908/1910 07009KT
BECMG 1917/1920 4000 BR BKN004
TEMPO 1920/2003 2000 BR BKN001
BECMG 2003/2005 9999 NSW SCT005 BKN035